Share

Walnut Ridge, AR

Walnut Ridge Regional (KARG) Elev 272 ft | 36.12 °N, 90.93 °W | Change Station

Current weather conditions updated 20 minutes ago

Clear
Clear
72 °F
Feels Like 72 °F
N
8
Wind Variable Wind from South
Sunrise 6:24 AM
Sunset 7:41 PM
Moon Waning Gibbous

Tomorrow is forecast to be Cooler than today. Rain and thunder.

Pressure 30.07 in
Visibility 10.0 miles
Clouds Clear
Dew Point 50 °F
Humidity 46%
Rainfall 0.00 in
Snow Depth Not available.
UV 0 out of 16
Pollen 9.70 out of 12
Air Quality Not available.
Flu Activity Sporadic
METAR KARG 210015Z AUTO 17007KT 10SM CLR 22/10 A3007 RMK AO1

More Conditions Fewer Conditions

Pressure 30.07 in
Visibility 10.0 miles
Clouds Clear
Dew Point 50 °F
Humidity 46%
Rainfall 0.00 in
Snow Depth Not available.
UV 0 out of 16
Pollen 9.70 out of 12
Air Quality Not available.
Flu Activity Sporadic
METAR KARG 210015Z AUTO 17007KT 10SM CLR 22/10 A3007 RMK AO1

More Conditions Fewer Conditions

10-Day Weather Forecast

Almanac

Astronomy

Apr. 20, 2014 Rise Set
Actual Time 6:24 AM CDT 7:41 PM CDT
Civil Twilight 5:57 AM CDT 8:08 PM CDT
Nautical Twilight 5:25 AM CDT 8:40 PM CDT
Astronomical Twilight 4:52 AM CDT 9:14 PM CDT
Moon 12:18 AM CDT (4/20) 10:48 AM CDT (4/20)
Length of Visible Light 14h 11m
Length of Day
13h 17m
Tomorrow will be 2m 7s longer.
Waning Gibbous, 65% of the Moon is Illuminated
Today
Waning Gibbous
Apr 22
Last Quarter
Apr 29
New
May 6
First Quarter
May 14
Full

Today's Extremes

State Highs State Lows

Community

  • Easter Dance
    Easter Dance
  • spring skiing mount Baker WA
    spring skiing mount Baker WA
  • Morning Sun
    Morning Sun
  • Happy Easter
    Happy Easter
  • after rain
    after rain

WunderPhotos

Upload Photos

1,703,459 photos uploaded!

WunderBlogs® & News

Nearby

Snow Depth

Station Depth Elevation
No new snow has been reported.

Coastal Water Temperatures

Place Temperature
No Stations Reporting

Earthquake Activity

City Distance Mag. Time & Date
No recent earthquake activity has been reported nearby.
Minimum magnitude displayed is 2.5.

Nearby Weather Stations

Station Location Temp. Heat Index Dew Point Humidity Wind Precip. Elev Updated Type
MesoWest OKEAN , O'Kean, AR 77 °F 75 °F - - North  at  - 0.00 in / hr 274 ft 5:45 PM CDT MADIS
Rural Ravenden Springs, Ravenden Springs, AR 72.0 °F 76 °F 36 °F 27% SSE  at  0.0 mph 0.00 in / hr 605 ft 7:35 PM CDT Rapid Fire
MesoWest JNSBRO , Jonesboro, AR 82 °F 80 °F - - North  at  - 0.00 in / hr 285 ft 6:30 PM CDT MADIS

Show More Stations Show Fewer Stations

What do you think?

We're not finished. Please let us know what you like, what you don't like, and what you are still missing.